sensor_id;sensor_type;location;lat;lon;timestamp;pressure;altitude;pressure_sealevel;temperature;humidity
21753;BME280;11038;50.940;20.564;2022-10-01T00:00:55;97627.25;;;9.16;100.00
21753;BME280;11038;50.940;20.564;2022-10-01T00:02:45;97615.44;;;9.18;100.00
21753;BME280;11038;50.940;20.564;2022-10-01T00:04:18;97622.09;;;9.23;100.00
21753;BME280;11038;50.940;20.564;2022-10-01T00:06:14;97618.13;;;9.27;100.00
21753;BME280;11038;50.940;20.564;2022-10-01T00:07:48;97619.44;;;9.31;100.00
21753;BME280;11038;50.940;20.564;2022-10-01T00:09:21;97621.97;;;9.33;100.00
21753;BME280;11038;50.940;20.564;2022-10-01T00:10:53;97619.94;;;9.35;100.00
21753;BME280;11038;50.940;20.564;2022-10-01T00:12:26;97629.44;;;9.37;100.00
21753;BME280;11038;50.940;20.564;2022-10-01T00:13:58;97631.78;;;9.40;100.00
21753;BME280;11038;50.940;20.564;2022-10-01T00:15:33;97624.63;;;9.41;100.00
21753;BME280;11038;50.940;20.564;2022-10-01T00:17:05;97624.28;;;9.44;100.00
21753;BME280;11038;50.940;20.564;2022-10-01T00:18:39;97617.13;;;9.45;100.00
21753;BME280;11038;50.940;20.564;2022-10-01T00:20:12;97624.28;;;9.44;100.00
21753;BME280;11038;50.940;20.564;2022-10-01T00:21:45;97633.63;;;9.48;100.00
21753;BME280;11038;50.940;20.564;2022-10-01T00:23:18;97629.78;;;9.51;100.00
21753;BME280;11038;50.940;20.564;2022-10-01T00:24:50;97626.13;;;9.52;100.00
21753;BME280;11038;50.940;20.564;2022-10-01T00:26:27;97622.44;;;9.53;100.00
21753;BME280;11038;50.940;20.564;2022-10-01T00:28:00;97619.97;;;9.43;100.00
21753;BME280;11038;50.940;20.564;2022-10-01T00:29:33;97625.63;;;9.48;100.00
21753;BME280;11038;50.940;20.564;2022-10-01T00:31:07;97623.81;;;9.49;100.00
21753;BME280;11038;50.940;20.564;2022-10-01T00:32:40;97627.78;;;9.53;100.00
21753;BME280;11038;50.940;20.564;2022-10-01T00:34:13;97627.78;;;9.53;100.00
21753;BME280;11038;50.940;20.564;2022-10-01T00:35:46;97637.47;;;9.54;100.00
21753;BME280;11038;50.940;20.564;2022-10-01T00:37:18;97629.13;;;9.57;100.00
21753;BME280;11038;50.940;20.564;2022-10-01T00:38:51;97630.78;;;9.58;100.00
21753;BME280;11038;50.940;20.564;2022-10-01T00:40:24;97634.28;;;9.59;100.00
21753;BME280;11038;50.940;20.564;2022-10-01T00:41:56;97634.94;;;9.61;100.00
21753;BME280;11038;50.940;20.564;2022-10-01T00:43:37;97632.13;;;9.62;100.00
21753;BME280;11038;50.940;20.564;2022-10-01T00:45:15;97632.28;;;9.61;100.00
21753;BME280;11038;50.940;20.564;2022-10-01T00:46:48;97628.44;;;9.63;100.00
21753;BME280;11038;50.940;20.564;2022-10-01T00:48:22;97621.47;;;9.46;100.00
21753;BME280;11038;50.940;20.564;2022-10-01T00:50:13;97611.13;;;9.43;100.00
21753;BME280;11038;50.940;20.564;2022-10-01T00:51:54;97620.09;;;9.33;100.00
21753;BME280;11038;50.940;20.564;2022-10-01T00:53:29;97621.78;;;9.43;100.00
21753;BME280;11038;50.940;20.564;2022-10-01T00:55:14;97620.13;;;9.50;100.00
21753;BME280;11038;50.940;20.564;2022-10-01T00:56:50;97626.94;;;9.52;100.00
21753;BME280;11038;50.940;20.564;2022-10-01T00:58:24;97625.97;;;9.54;100.00
21753;BME280;11038;50.940;20.564;2022-10-01T01:00:02;97623.94;;;9.56;100.00
21753;BME280;11038;50.940;20.564;2022-10-01T01:01:37;97613.47;;;9.54;100.00
21753;BME280;11038;50.940;20.564;2022-10-01T01:03:11;97618.47;;;9.57;100.00
21753;BME280;11038;50.940;20.564;2022-10-01T01:04:44;97614.78;;;9.58;100.00
21753;BME280;11038;50.940;20.564;2022-10-01T01:06:16;97611.97;;;9.60;100.00
21753;BME280;11038;50.940;20.564;2022-10-01T01:07:51;97608.97;;;9.63;100.00
21753;BME280;11038;50.940;20.564;2022-10-01T01:09:34;97612.78;;;9.60;100.00
21753;BME280;11038;50.940;20.564;2022-10-01T01:11:49;97615.28;;;9.62;100.00
21753;BME280;11038;50.940;20.564;2022-10-01T01:13:45;97615.63;;;9.67;100.00
21753;BME280;11038;50.940;20.564;2022-10-01T01:15:46;97615.78;;;9.66;100.00
21753;BME280;11038;50.940;20.564;2022-10-01T01:17:40;97612.13;;;9.67;100.00
21753;BME280;11038;50.940;20.564;2022-10-01T01:21:30;97605.78;;;9.68;100.00
21753;BME280;11038;50.940;20.564;2022-10-01T01:25:24;97603.13;;;9.68;100.00
21753;BME280;11038;50.940;20.564;2022-10-01T01:29:00;97603.78;;;9.70;100.00
21753;BME280;11038;50.940;20.564;2022-10-01T01:30:37;97607.28;;;9.70;100.00
21753;BME280;11038;50.940;20.564;2022-10-01T01:32:22;97610.78;;;9.71;100.00
21753;BME280;11038;50.940;20.564;2022-10-01T01:33:56;97603.78;;;9.70;100.00
21753;BME280;11038;50.940;20.564;2022-10-01T01:35:40;97605.09;;;9.74;100.00
21753;BME280;11038;50.940;20.564;2022-10-01T01:37:20;97600.78;;;9.73;100.00
21753;BME280;11038;50.940;20.564;2022-10-01T01:39:02;97603.13;;;9.76;100.00
21753;BME280;11038;50.940;20.564;2022-10-01T01:40:38;97614.78;;;9.75;100.00
21753;BME280;11038;50.940;20.564;2022-10-01T01:42:29;97602.09;;;9.77;100.00
21753;BME280;11038;50.940;20.564;2022-10-01T01:44:07;97602.78;;;9.71;100.00
21753;BME280;11038;50.940;20.564;2022-10-01T01:45:43;97611.13;;;9.59;100.00
21753;BME280;11038;50.940;20.564;2022-10-01T01:47:18;97613.59;;;9.69;100.00
21753;BME280;11038;50.940;20.564;2022-10-01T01:48:52;97609.13;;;9.70;100.00
21753;BME280;11038;50.940;20.564;2022-10-01T01:50:29;97608.59;;;9.74;100.00
21753;BME280;11038;50.940;20.564;2022-10-01T01:52:12;97611.25;;;9.74;100.00
21753;BME280;11038;50.940;20.564;2022-10-01T01:53:46;97607.09;;;9.72;100.00
21753;BME280;11038;50.940;20.564;2022-10-01T01:55:22;97606.78;;;9.75;100.00
21753;BME280;11038;50.940;20.564;2022-10-01T01:56:57;97617.28;;;9.77;100.00
21753;BME280;11038;50.940;20.564;2022-10-01T01:58:33;97613.59;;;9.78;100.00
21753;BME280;11038;50.940;20.564;2022-10-01T02:00:07;97618.09;;;9.77;100.00
21753;BME280;11038;50.940;20.564;2022-10-01T02:01:42;97609.09;;;9.78;100.00
21753;BME280;11038;50.940;20.564;2022-10-01T02:03:15;97612.75;;;9.77;100.00
21753;BME280;11038;50.940;20.564;2022-10-01T02:05:13;97614.44;;;9.78;100.00
21753;BME280;11038;50.940;20.564;2022-10-01T02:11:20;97606.09;;;9.81;100.00
21753;BME280;11038;50.940;20.564;2022-10-01T02:15:10;97605.09;;;9.82;100.00
21753;BME280;11038;50.940;20.564;2022-10-01T02:17:01;97608.78;;;9.81;100.00
21753;BME280;11038;50.940;20.564;2022-10-01T02:18:59;97609.63;;;9.82;100.00
21753;BME280;11038;50.940;20.564;2022-10-01T02:20:53;97600.59;;;9.83;100.00
21753;BME280;11038;50.940;20.564;2022-10-01T02:22:41;97600.25;;;9.86;100.00
21753;BME280;11038;50.940;20.564;2022-10-01T02:26:18;97609.09;;;9.87;100.00
21753;BME280;11038;50.940;20.564;2022-10-01T02:27:57;97612.28;;;9.82;100.00
21753;BME280;11038;50.940;20.564;2022-10-01T02:29:34;97609.75;;;9.80;100.00
21753;BME280;11038;50.940;20.564;2022-10-01T02:31:11;97620.09;;;9.83;100.00
21753;BME280;11038;50.940;20.564;2022-10-01T02:32:48;97617.44;;;9.83;100.00
21753;BME280;11038;50.940;20.564;2022-10-01T02:34:28;97622.44;;;9.87;100.00
21753;BME280;11038;50.940;20.564;2022-10-01T02:36:05;97619.91;;;9.85;100.00
21753;BME280;11038;50.940;20.564;2022-10-01T02:37:42;97620.75;;;9.85;100.00
21753;BME280;11038;50.940;20.564;2022-10-01T02:39:17;97616.25;;;9.86;100.00
21753;BME280;11038;50.940;20.564;2022-10-01T02:40:54;97622.44;;;9.87;100.00
21753;BME280;11038;50.940;20.564;2022-10-01T02:42:29;97618.09;;;9.85;100.00
21753;BME280;11038;50.940;20.564;2022-10-01T02:44:14;97617.09;;;9.87;100.00
21753;BME280;11038;50.940;20.564;2022-10-01T02:45:55;97617.09;;;9.87;100.00
21753;BME280;11038;50.940;20.564;2022-10-01T02:47:49;97622.44;;;9.87;100.00
21753;BME280;11038;50.940;20.564;2022-10-01T02:49:26;97622.25;;;9.88;100.00
21753;BME280;11038;50.940;20.564;2022-10-01T02:51:46;97627.78;;;9.87;100.00
21753;BME280;11038;50.940;20.564;2022-10-01T02:53:29;97619.59;;;9.88;100.00
21753;BME280;11038;50.940;20.564;2022-10-01T02:55:23;97607.09;;;9.89;100.00
21753;BME280;11038;50.940;20.564;2022-10-01T02:56:58;97621.28;;;9.89;100.00
21753;BME280;11038;50.940;20.564;2022-10-01T02:58:49;97620.44;;;9.89;100.00
21753;BME280;11038;50.940;20.564;2022-10-01T03:00:24;97615.44;;;9.85;100.00
21753;BME280;11038;50.940;20.564;2022-10-01T03:01:58;97617.94;;;9.87;100.00
21753;BME280;11038;50.940;20.564;2022-10-01T03:03:30;97618.78;;;9.88;100.00
21753;BME280;11038;50.940;20.564;2022-10-01T03:05:03;97624.13;;;9.88;100.00
21753;BME280;11038;50.940;20.564;2022-10-01T03:06:36;97620.44;;;9.89;100.00
21753;BME280;11038;50.940;20.564;2022-10-01T03:08:08;97617.44;;;9.92;100.00
21753;BME280;11038;50.940;20.564;2022-10-01T03:09:41;97619.44;;;9.90;100.00
21753;BME280;11038;50.940;20.564;2022-10-01T03:11:13;97614.75;;;9.92;100.00
21753;BME280;11038;50.940;20.564;2022-10-01T03:12:47;97607.91;;;9.89;100.00
21753;BME280;11038;50.940;20.564;2022-10-01T03:14:20;97611.44;;;9.90;100.00
21753;BME280;11038;50.940;20.564;2022-10-01T03:15:52;97612.41;;;9.89;100.00
21753;BME280;11038;50.940;20.564;2022-10-01T03:17:25;97616.44;;;9.93;100.00
21753;BME280;11038;50.940;20.564;2022-10-01T03:18:57;97617.44;;;9.92;100.00
21753;BME280;11038;50.940;20.564;2022-10-01T03:20:30;97622.09;;;9.90;100.00
21753;BME280;11038;50.940;20.564;2022-10-01T03:22:02;97619.09;;;9.93;100.00
21753;BME280;11038;50.940;20.564;2022-10-01T03:23:35;97628.75;;;9.94;100.00
21753;BME280;11038;50.940;20.564;2022-10-01T03:25:07;97616.25;;;9.94;100.00
21753;BME280;11038;50.940;20.564;2022-10-01T03:26:40;97615.41;;;9.94;100.00
21753;BME280;11038;50.940;20.564;2022-10-01T03:28:12;97618.75;;;9.96;100.00
21753;BME280;11038;50.940;20.564;2022-10-01T03:29:45;97620.75;;;9.94;100.00
21753;BME280;11038;50.940;20.564;2022-10-01T03:31:17;97621.41;;;9.96;100.00
21753;BME280;11038;50.940;20.564;2022-10-01T03:32:50;97618.75;;;9.96;100.00
21753;BME280;11038;50.940;20.564;2022-10-01T03:34:22;97624.06;;;9.96;100.00
21753;BME280;11038;50.940;20.564;2022-10-01T03:35:55;97631.94;;;9.98;100.00
21753;BME280;11038;50.940;20.564;2022-10-01T03:37:27;97623.09;;;9.97;100.00
21753;BME280;11038;50.940;20.564;2022-10-01T03:39:00;97629.25;;;9.98;100.00
21753;BME280;11038;50.940;20.564;2022-10-01T03:40:32;97624.75;;;9.98;100.00
21753;BME280;11038;50.940;20.564;2022-10-01T03:42:08;97617.75;;;9.97;100.00
21753;BME280;11038;50.940;20.564;2022-10-01T03:43:40;97615.06;;;9.97;100.00
21753;BME280;11038;50.940;20.564;2022-10-01T03:45:13;97618.59;;;9.98;100.00
21753;BME280;11038;50.940;20.564;2022-10-01T03:46:45;97616.06;;;9.96;100.00
21753;BME280;11038;50.940;20.564;2022-10-01T03:48:17;97616.06;;;9.96;100.00
21753;BME280;11038;50.940;20.564;2022-10-01T03:49:50;97618.75;;;9.96;100.00
21753;BME280;11038;50.940;20.564;2022-10-01T03:51:23;97622.25;;;9.96;100.00
21753;BME280;11038;50.940;20.564;2022-10-01T03:52:55;97619.75;;;9.95;100.00
21753;BME280;11038;50.940;20.564;2022-10-01T03:54:27;97615.06;;;9.97;100.00
21753;BME280;11038;50.940;20.564;2022-10-01T03:56:02;97615.06;;;9.97;100.00
21753;BME280;11038;50.940;20.564;2022-10-01T03:57:35;97618.59;;;9.98;100.00
21753;BME280;11038;50.940;20.564;2022-10-01T03:59:09;97617.56;;;9.99;100.00
21753;BME280;11038;50.940;20.564;2022-10-01T04:00:44;97621.06;;;9.99;100.00
21753;BME280;11038;50.940;20.564;2022-10-01T04:02:17;97618.59;;;9.98;100.00
21753;BME280;11038;50.940;20.564;2022-10-01T04:03:51;97621.06;;;9.99;100.00
21753;BME280;11038;50.940;20.564;2022-10-01T04:05:23;97621.06;;;9.99;100.00
21753;BME280;11038;50.940;20.564;2022-10-01T04:06:56;97615.25;;;9.95;100.00
21753;BME280;11038;50.940;20.564;2022-10-01T04:08:28;97623.09;;;9.97;100.00
21753;BME280;11038;50.940;20.564;2022-10-01T04:10:01;97611.41;;;9.98;100.00
21753;BME280;11038;50.940;20.564;2022-10-01T04:11:33;97616.56;;;10.00;100.00
21753;BME280;11038;50.940;20.564;2022-10-01T04:13:08;97614.09;;;9.98;100.00
21753;BME280;11038;50.940;20.564;2022-10-01T04:14:41;97618.41;;;9.99;100.00
21753;BME280;11038;50.940;20.564;2022-10-01T04:16:13;97613.75;;;10.01;100.00
21753;BME280;11038;50.940;20.564;2022-10-01T04:17:48;97614.09;;;9.98;100.00
21753;BME280;11038;50.940;20.564;2022-10-01T04:19:20;97607.91;;;9.98;100.00
21753;BME280;11038;50.940;20.564;2022-10-01T04:20:52;97608.75;;;9.98;100.00
21753;BME280;11038;50.940;20.564;2022-10-01T04:22:25;97613.25;;;9.98;100.00
21753;BME280;11038;50.940;20.564;2022-10-01T04:23:58;97611.25;;;10.00;100.00
21753;BME280;11038;50.940;20.564;2022-10-01T04:25:31;97614.41;;;9.95;100.00
21753;BME280;11038;50.940;20.564;2022-10-01T04:27:03;97615.75;;;9.99;100.00
21753;BME280;11038;50.940;20.564;2022-10-01T04:28:36;97614.25;;;9.96;100.00
21753;BME280;11038;50.940;20.564;2022-10-01T04:30:09;97618.09;;;9.94;100.00
21753;BME280;11038;50.940;20.564;2022-10-01T04:31:41;97615.91;;;9.98;100.00
21753;BME280;11038;50.940;20.564;2022-10-01T04:33:15;97611.25;;;10.00;100.00
21753;BME280;11038;50.940;20.564;2022-10-01T04:34:47;97608.91;;;9.96;100.00
21753;BME280;11038;50.940;20.564;2022-10-01T04:36:26;97607.06;;;9.97;100.00
21753;BME280;11038;50.940;20.564;2022-10-01T04:38:09;97599.91;;;9.98;100.00
21753;BME280;11038;50.940;20.564;2022-10-01T04:39:43;97609.09;;;9.95;100.00
21753;BME280;11038;50.940;20.564;2022-10-01T04:41:16;97603.41;;;9.98;100.00
21753;BME280;11038;50.940;20.564;2022-10-01T04:42:48;97607.72;;;9.99;100.00
21753;BME280;11038;50.940;20.564;2022-10-01T04:44:20;97604.22;;;9.99;100.00
21753;BME280;11038;50.940;20.564;2022-10-01T04:45:52;97605.06;;;9.99;100.00
21753;BME280;11038;50.940;20.564;2022-10-01T04:47:25;97605.41;;;9.96;100.00
21753;BME280;11038;50.940;20.564;2022-10-01T04:48:57;97603.75;;;9.95;100.00
21753;BME280;11038;50.940;20.564;2022-10-01T04:50:29;97600.75;;;9.98;100.00
21753;BME280;11038;50.940;20.564;2022-10-01T04:52:03;97597.22;;;9.98;100.00
21753;BME280;11038;50.940;20.564;2022-10-01T04:53:36;97603.41;;;9.98;100.00
21753;BME280;11038;50.940;20.564;2022-10-01T04:55:09;97594.38;;;9.99;100.00
21753;BME280;11038;50.940;20.564;2022-10-01T04:56:41;97600.56;;;10.00;100.00
21753;BME280;11038;50.940;20.564;2022-10-01T04:58:14;97604.06;;;10.00;100.00
21753;BME280;11038;50.940;20.564;2022-10-01T04:59:47;97602.38;;;9.99;100.00
21753;BME280;11038;50.940;20.564;2022-10-01T05:01:19;97601.41;;;10.00;100.00
21753;BME280;11038;50.940;20.564;2022-10-01T05:02:53;97597.91;;;10.00;100.00
21753;BME280;11038;50.940;20.564;2022-10-01T05:04:25;97602.91;;;10.03;100.00
21753;BME280;11038;50.940;20.564;2022-10-01T05:05:58;97606.56;;;10.02;100.00
21753;BME280;11038;50.940;20.564;2022-10-01T05:07:32;97594.03;;;10.02;100.00
21753;BME280;11038;50.940;20.564;2022-10-01T05:09:05;97603.88;;;10.02;100.00
21753;BME280;11038;50.940;20.564;2022-10-01T05:10:37;97598.53;;;10.02;100.00
21753;BME280;11038;50.940;20.564;2022-10-01T05:12:10;97603.72;;;10.03;100.00
21753;BME280;11038;50.940;20.564;2022-10-01T05:13:42;97604.38;;;10.05;100.00
21753;BME280;11038;50.940;20.564;2022-10-01T05:15:16;97604.38;;;10.05;100.00
21753;BME280;11038;50.940;20.564;2022-10-01T05:16:48;97599.88;;;10.06;100.00
21753;BME280;11038;50.940;20.564;2022-10-01T05:18:21;97594.88;;;10.03;100.00
21753;BME280;11038;50.940;20.564;2022-10-01T05:19:53;97597.56;;;10.03;100.00
21753;BME280;11038;50.940;20.564;2022-10-01T05:21:27;97600.22;;;10.03;100.00
21753;BME280;11038;50.940;20.564;2022-10-01T05:22:59;97601.06;;;10.03;100.00
21753;BME280;11038;50.940;20.564;2022-10-01T05:24:32;97597.38;;;10.04;100.00
21753;BME280;11038;50.940;20.564;2022-10-01T05:26:04;97598.06;;;10.06;100.00
21753;BME280;11038;50.940;20.564;2022-10-01T05:27:37;97603.41;;;10.06;100.00
21753;BME280;11038;50.940;20.564;2022-10-01T05:29:11;97594.38;;;10.07;100.00
21753;BME280;11038;50.940;20.564;2022-10-01T05:30:46;97603.88;;;10.10;100.00
21753;BME280;11038;50.940;20.564;2022-10-01T05:32:19;97601.19;;;10.10;100.00
21753;BME280;11038;50.940;20.564;2022-10-01T05:33:51;97607.38;;;10.11;100.00
21753;BME280;11038;50.940;20.564;2022-10-01T05:35:23;97603.72;;;10.12;100.00
21753;BME280;11038;50.940;20.564;2022-10-01T05:36:56;97605.38;;;10.13;100.00
21753;BME280;11038;50.940;20.564;2022-10-01T05:38:28;97603.03;;;10.10;100.00
21753;BME280;11038;50.940;20.564;2022-10-01T05:40:01;97605.22;;;10.14;100.00
21753;BME280;11038;50.940;20.564;2022-10-01T05:41:34;97606.84;;;10.15;100.00
21753;BME280;11038;50.940;20.564;2022-10-01T05:43:07;97606.03;;;10.15;100.00
21753;BME280;11038;50.940;20.564;2022-10-01T05:44:40;97599.69;;;10.16;100.00
21753;BME280;11038;50.940;20.564;2022-10-01T05:46:17;97610.69;;;10.13;100.00
21753;BME280;11038;50.940;20.564;2022-10-01T05:48:04;97603.53;;;10.13;100.00
21753;BME280;11038;50.940;20.564;2022-10-01T05:49:37;97603.69;;;10.20;100.00
21753;BME280;11038;50.940;20.564;2022-10-01T05:51:13;97601.50;;;10.24;100.00
21753;BME280;11038;50.940;20.564;2022-10-01T05:52:51;97601.34;;;10.25;100.00
21753;BME280;11038;50.940;20.564;2022-10-01T05:54:24;97601.50;;;10.24;100.00
21753;BME280;11038;50.940;20.564;2022-10-01T05:55:58;97600.31;;;10.26;100.00
21753;BME280;11038;50.940;20.564;2022-10-01T05:57:34;97600.31;;;10.26;100.00
21753;BME280;11038;50.940;20.564;2022-10-01T05:59:06;97599.97;;;10.29;100.00
21753;BME280;11038;50.940;20.564;2022-10-01T06:00:40;97608.50;;;10.33;100.00
21753;BME280;11038;50.940;20.564;2022-10-01T06:02:13;97608.31;;;10.35;100.00
21753;BME280;11038;50.940;20.564;2022-10-01T06:03:52;97609.97;;;10.36;100.00
21753;BME280;11038;50.940;20.564;2022-10-01T06:05:26;97611.13;;;10.41;100.00
21753;BME280;11038;50.940;20.564;2022-10-01T06:06:59;97604.75;;;10.43;100.00
21753;BME280;11038;50.940;20.564;2022-10-01T06:08:36;97594.75;;;10.45;100.00
21753;BME280;11038;50.940;20.564;2022-10-01T06:10:11;97595.91;;;10.50;100.00
21753;BME280;11038;50.940;20.564;2022-10-01T06:11:45;97602.59;;;10.55;100.00
21753;BME280;11038;50.940;20.564;2022-10-01T06:13:19;97595.88;;;10.59;100.00
21753;BME280;11038;50.940;20.564;2022-10-01T06:14:52;97599.03;;;10.62;100.00
21753;BME280;11038;50.940;20.564;2022-10-01T06:16:24;97608.56;;;10.65;100.00
21753;BME280;11038;50.940;20.564;2022-10-01T06:18:01;97607.72;;;10.65;100.00
21753;BME280;11038;50.940;20.564;2022-10-01T06:19:36;97596.03;;;10.66;100.00
21753;BME280;11038;50.940;20.564;2022-10-01T06:21:09;97601.19;;;10.67;100.00
21753;BME280;11038;50.940;20.564;2022-10-01T06:22:42;97605.56;;;10.60;100.00
21753;BME280;11038;50.940;20.564;2022-10-01T06:24:15;97606.91;;;10.64;100.00
21753;BME280;11038;50.940;20.564;2022-10-01T06:25:47;97602.94;;;10.51;100.00
21753;BME280;11038;50.940;20.564;2022-10-01T06:27:19;97608.91;;;10.62;100.00
21753;BME280;11038;50.940;20.564;2022-10-01T06:28:51;97607.25;;;10.61;100.00
21753;BME280;11038;50.940;20.564;2022-10-01T06:30:28;97601.03;;;10.69;100.00
21753;BME280;11038;50.940;20.564;2022-10-01T06:32:03;97595.19;;;10.65;100.00
21753;BME280;11038;50.940;20.564;2022-10-01T06:33:35;97599.19;;;10.69;100.00
21753;BME280;11038;50.940;20.564;2022-10-01T06:35:07;97593.97;;;10.76;100.00
21753;BME280;11038;50.940;20.564;2022-10-01T06:36:40;97592.13;;;10.77;100.00
21753;BME280;11038;50.940;20.564;2022-10-01T06:38:13;97586.59;;;10.78;100.00
21753;BME280;11038;50.940;20.564;2022-10-01T06:39:46;97590.13;;;10.79;100.00
21753;BME280;11038;50.940;20.564;2022-10-01T06:41:19;97595.41;;;10.87;100.00
21753;BME280;11038;50.940;20.564;2022-10-01T06:42:51;97600.06;;;10.93;100.00
21753;BME280;11038;50.940;20.564;2022-10-01T06:44:27;97600.00;;;11.02;100.00
21753;BME280;11038;50.940;20.564;2022-10-01T06:46:02;97601.50;;;11.04;100.00
21753;BME280;11038;50.940;20.564;2022-10-01T06:47:35;97599.28;;;11.08;100.00
21753;BME280;11038;50.940;20.564;2022-10-01T06:49:09;97587.25;;;11.12;100.00
21753;BME280;11038;50.940;20.564;2022-10-01T06:50:43;97593.88;;;11.16;100.00
21753;BME280;11038;50.940;20.564;2022-10-01T06:52:16;97603.53;;;11.26;100.00
21753;BME280;11038;50.940;20.564;2022-10-01T06:54:07;97600.31;;;11.31;100.00
21753;BME280;11038;50.940;20.564;2022-10-01T06:55:40;97601.63;;;11.35;100.00
21753;BME280;11038;50.940;20.564;2022-10-01T06:57:13;97596.09;;;11.36;100.00
21753;BME280;11038;50.940;20.564;2022-10-01T06:58:45;97601.72;;;11.42;100.00
21753;BME280;11038;50.940;20.564;2022-10-01T07:00:17;97599.06;;;11.42;100.00
21753;BME280;11038;50.940;20.564;2022-10-01T07:01:50;97598.69;;;11.45;100.00
21753;BME280;11038;50.940;20.564;2022-10-01T07:03:28;97596.03;;;11.45;100.00
21753;BME280;11038;50.940;20.564;2022-10-01T07:05:01;97607.72;;;11.44;100.00
21753;BME280;11038;50.940;20.564;2022-10-01T07:06:33;97605.53;;;11.47;100.00
21753;BME280;11038;50.940;20.564;2022-10-01T07:08:07;97604.06;;;11.45;100.00
21753;BME280;11038;50.940;20.564;2022-10-01T07:09:39;97596.09;;;11.36;100.00
21753;BME280;11038;50.940;20.564;2022-10-01T07:11:12;97599.69;;;11.44;100.00
21753;BME280;11038;50.940;20.564;2022-10-01T07:12:44;97601.31;;;11.53;100.00
21753;BME280;11038;50.940;20.564;2022-10-01T07:14:19;97605.75;;;11.61;100.00
21753;BME280;11038;50.940;20.564;2022-10-01T07:15:52;97603.22;;;11.68;100.00
21753;BME280;11038;50.940;20.564;2022-10-01T07:17:25;97604.50;;;11.72;100.00
21753;BME280;11038;50.940;20.564;2022-10-01T07:18:57;97603.78;;;11.78;100.00
21753;BME280;11038;50.940;20.564;2022-10-01T07:20:29;97602.03;;;11.85;100.00
21753;BME280;11038;50.940;20.564;2022-10-01T07:22:06;97610.34;;;11.91;100.00
21753;BME280;11038;50.940;20.564;2022-10-01T07:23:38;97608.50;;;11.91;100.00
21753;BME280;11038;50.940;20.564;2022-10-01T07:25:11;97615.16;;;11.95;100.00
21753;BME280;11038;50.940;20.564;2022-10-01T07:26:44;97608.78;;;11.96;100.00
21753;BME280;11038;50.940;20.564;2022-10-01T07:28:19;97617.75;;;12.04;100.00
21753;BME280;11038;50.940;20.564;2022-10-01T07:29:52;97607.50;;;12.07;100.00
21753;BME280;11038;50.940;20.564;2022-10-01T07:31:24;97612.81;;;12.16;100.00
21753;BME280;11038;50.940;20.564;2022-10-01T07:32:56;97610.41;;;12.21;100.00
21753;BME280;11038;50.940;20.564;2022-10-01T07:34:29;97606.78;;;12.29;100.00
21753;BME280;11038;50.940;20.564;2022-10-01T07:36:07;97602.47;;;12.43;100.00
21753;BME280;11038;50.940;20.564;2022-10-01T07:37:39;97591.63;;;12.51;100.00
21753;BME280;11038;50.940;20.564;2022-10-01T07:39:12;97586.91;;;12.54;99.63
21753;BME280;11038;50.940;20.564;2022-10-01T07:40:50;97581.09;;;12.65;98.72
21753;BME280;11038;50.940;20.564;2022-10-01T07:42:23;97586.25;;;13.04;98.39
21753;BME280;11038;50.940;20.564;2022-10-01T07:43:57;97583.25;;;13.36;97.96
21753;BME280;11038;50.940;20.564;2022-10-01T07:45:29;97577.00;;;13.50;97.64
21753;BME280;11038;50.940;20.564;2022-10-01T07:47:01;97583.81;;;13.53;96.34
21753;BME280;11038;50.940;20.564;2022-10-01T07:48:34;97583.72;;;13.61;95.77
21753;BME280;11038;50.940;20.564;2022-10-01T07:50:06;97584.47;;;13.33;92.76
21753;BME280;11038;50.940;20.564;2022-10-01T07:51:38;97585.19;;;13.64;93.01
21753;BME280;11038;50.940;20.564;2022-10-01T07:53:12;97583.47;;;13.85;92.84
21753;BME280;11038;50.940;20.564;2022-10-01T07:54:44;97583.72;;;13.90;92.69
21753;BME280;11038;50.940;20.564;2022-10-01T07:56:18;97579.47;;;14.03;92.63
21753;BME280;11038;50.940;20.564;2022-10-01T07:57:57;97584.69;;;14.11;91.74
21753;BME280;11038;50.940;20.564;2022-10-01T07:59:32;97585.34;;;14.20;91.22
21753;BME280;11038;50.940;20.564;2022-10-01T08:01:05;97582.16;;;14.38;90.46
21753;BME280;11038;50.940;20.564;2022-10-01T08:02:37;97593.53;;;14.41;89.24
21753;BME280;11038;50.940;20.564;2022-10-01T08:04:09;97591.91;;;14.46;88.72
21753;BME280;11038;50.940;20.564;2022-10-01T08:06:00;97587.38;;;14.54;88.10
21753;BME280;11038;50.940;20.564;2022-10-01T08:07:35;97582.22;;;14.59;87.48
21753;BME280;11038;50.940;20.564;2022-10-01T08:09:08;97584.97;;;14.72;86.73
21753;BME280;11038;50.940;20.564;2022-10-01T08:10:41;97581.34;;;14.87;86.49
21753;BME280;11038;50.940;20.564;2022-10-01T08:12:13;97579.31;;;15.16;86.04
21753;BME280;11038;50.940;20.564;2022-10-01T08:13:46;97586.38;;;15.18;85.78
21753;BME280;11038;50.940;20.564;2022-10-01T08:15:18;97586.38;;;15.18;85.25
21753;BME280;11038;50.940;20.564;2022-10-01T08:16:53;97586.38;;;15.18;84.27
21753;BME280;11038;50.940;20.564;2022-10-01T08:18:27;97589.09;;;15.31;84.04
21753;BME280;11038;50.940;20.564;2022-10-01T08:20:00;97602.13;;;15.34;82.99
21753;BME280;11038;50.940;20.564;2022-10-01T08:21:33;97594.69;;;15.43;82.47
21753;BME280;11038;50.940;20.564;2022-10-01T08:23:10;97599.25;;;15.43;82.29
21753;BME280;11038;50.940;20.564;2022-10-01T08:24:44;97598.81;;;15.32;81.82
21753;BME280;11038;50.940;20.564;2022-10-01T08:26:17;97589.91;;;15.25;81.59
21753;BME280;11038;50.940;20.564;2022-10-01T08:27:49;97589.28;;;15.23;81.62
21753;BME280;11038;50.940;20.564;2022-10-01T08:29:21;97589.28;;;15.23;81.82
21753;BME280;11038;50.940;20.564;2022-10-01T08:30:54;97591.75;;;15.18;81.32